Brighton, New York
Current Conditions -  °F | °C
As of 1:54 PM on Friday 21 Nov 2014 (Local Time) from KROC Reporting Station
Broken Clouds Broken Clouds  
Wind Chill: 17°   Ceiling: 4000
Heat Index: 27°   Visibility: 10mi
Dew Point: 16°   Wind: 12mph
Humidity: 63%   Direction: 260°W
Pressure: 30.38"   Gusts: NA
Location:  43.13°N, 77.57°W
Report Text: KROC 211854Z 26010KT 10SM SCT028 BKN040 M03/M09 A3038 RMK AO2 SLP299 T10281089
Loading
Personal Weather Stations






























Interactive Weather Map New forecast layout! Learn more

10-Day Weather Forecast

Advertisements
Track Severe Weather on mobile